Time;durP1;ratioP1;P1;durP2;ratioP2;P2;SDS_P1;SDS_P2;PMS_P1;PMS_P2;Temp;Humidity;BMP_temperature;BMP_pressure;BME280_temperature;BME280_humidity;BME280_pressure;Samples;Min_cycle;Max_cycle;Signal;HPM_P1;HPM_P2
2021/12/18 00:01:38;;;;;;;5.75;3.33;;;20.00;60.00;;;;;;5032494;28;89373;-81
2021/12/18 00:04:07;;;;;;;4.78;3.03;;;20.00;60.00;;;;;;5030385;28;88729;-82
2021/12/18 00:06:35;;;;;;;6.35;3.80;;;20.00;60.10;;;;;;5049429;28;88729;-82
2021/12/18 00:09:11;;;;;;;4.43;3.40;;;20.00;60.10;;;;;;5030340;28;87954;-81
2021/12/18 00:11:37;;;;;;;5.32;3.22;;;20.00;60.10;;;;;;5013390;28;88671;-82
2021/12/18 00:14:06;;;;;;;6.55;3.65;;;20.00;60.10;;;;;;5047171;28;88568;-82
2021/12/18 00:16:33;;;;;;;7.03;4.07;;;20.00;60.10;;;;;;5047100;28;86948;-81
2021/12/18 00:19:03;;;;;;;5.35;3.53;;;20.00;60.10;;;;;;5026851;28;87003;-82
2021/12/18 00:21:30;;;;;;;6.10;3.63;;;20.00;60.10;;;;;;5029436;28;89067;-83
2021/12/18 00:23:57;;;;;;;6.72;3.70;;;19.90;60.10;;;;;;5048419;28;87172;-82
2021/12/18 00:26:43;;;;;;;4.20;3.30;;;19.90;60.10;;;;;;5045742;28;88950;-82
2021/12/18 00:29:15;;;;;;;4.18;3.17;;;19.90;60.10;;;;;;5029018;28;87891;-81
2021/12/18 00:31:45;;;;;;;6.03;3.42;;;19.90;60.10;;;;;;5025576;28;88123;-81
2021/12/18 00:34:11;;;;;;;6.40;3.60;;;19.90;60.10;;;;;;5027430;28;88012;-81
2021/12/18 00:36:47;;;;;;;4.65;3.13;;;19.90;60.10;;;;;;5046517;28;87127;-82
2021/12/18 00:39:22;;;;;;;7.38;3.60;;;19.90;60.10;;;;;;5031995;28;87854;-81
2021/12/18 00:42:08;;;;;;;5.53;3.58;;;19.90;60.10;;;;;;5051387;28;88828;-82
2021/12/18 00:44:38;;;;;;;4.32;3.17;;;19.90;60.10;;;;;;5030956;28;88264;-82
2021/12/18 00:47:16;;;;;;;8.48;3.50;;;19.80;60.10;;;;;;5032157;28;87815;-82
2021/12/18 00:49:42;;;;;;;5.75;3.13;;;19.80;60.00;;;;;;5045676;28;87161;-82
2021/12/18 00:52:11;;;;;;;4.35;3.58;;;19.80;60.00;;;;;;5045905;28;87892;-81
2021/12/18 00:54:43;;;;;;;5.22;3.58;;;19.80;60.60;;;;;;5046049;28;89249;-82
2021/12/18 00:57:15;;;;;;;5.20;3.05;;;19.80;60.10;;;;;;5018996;28;88981;-82
2021/12/18 00:59:48;;;;;;;4.88;3.42;;;19.80;60.10;;;;;;5037393;28;86833;-81
2021/12/18 01:02:44;;;;;;;5.68;3.28;;;19.80;60.10;;;;;;5050607;28;87028;-82
2021/12/18 01:05:14;;;;;;;4.55;3.55;;;19.80;60.10;;;;;;5047438;28;88116;-82
2021/12/18 01:07:55;;;;;;;6.07;3.75;;;19.80;60.10;;;;;;5046114;28;87426;-82
2021/12/18 01:13:17;;;;;;;5.15;3.47;;;19.80;60.10;;;;;;5043890;28;86372;-82
2021/12/18 01:15:49;;;;;;;5.88;3.67;;;19.80;60.60;;;;;;5045796;28;87531;-82
2021/12/18 01:23:54;;;;;;;4.65;3.63;;;19.70;60.10;;;;;;5049362;28;87500;-82
2021/12/18 01:26:21;;;;;;;4.75;3.22;;;19.70;60.00;;;;;;5030788;28;89596;-81
2021/12/18 01:28:48;;;;;;;4.63;3.38;;;19.70;60.00;;;;;;5028698;28;87064;-81
2021/12/18 01:31:14;;;;;;;4.97;3.58;;;19.70;60.10;;;;;;5046745;28;86991;-81
2021/12/18 01:33:47;;;;;;;4.22;3.22;;;19.70;60.10;;;;;;5046726;28;88254;-82
2021/12/18 01:36:20;;;;;;;4.35;3.20;;;19.70;60.10;;;;;;5026530;28;88301;-81
2021/12/18 01:39:03;;;;;;;6.68;4.03;;;19.70;60.10;;;;;;5029284;28;89231;-81
2021/12/18 01:41:52;;;;;;;;;;;19.70;60.10;;;;;;5042746;28;87479;-82
2021/12/18 01:52:37;;;;;;;4.35;3.50;;;19.70;60.10;;;;;;5036170;28;87131;-83
2021/12/18 01:55:48;;;;;;;4.15;3.40;;;19.60;60.10;;;;;;5038731;28;87819;-82
2021/12/18 01:58:21;;;;;;;6.03;3.80;;;19.60;60.00;;;;;;5028514;28;87535;-82
2021/12/18 02:00:53;;;;;;;4.10;3.30;;;19.60;60.10;;;;;;5029273;28;88625;-82
2021/12/18 02:03:31;;;;;;;3.40;2.92;;;19.60;60.10;;;;;;5045839;28;86427;-81
2021/12/18 02:05:58;;;;;;;4.90;3.40;;;19.60;60.10;;;;;;5048092;28;86478;-82
2021/12/18 02:08:27;;;;;;;6.00;4.28;;;19.60;60.10;;;;;;5029193;28;87135;-82
2021/12/18 02:11:39;;;;;;;4.30;3.47;;;19.60;60.10;;;;;;5047011;28;88524;-81
2021/12/18 02:14:21;;;;;;;4.63;3.47;;;19.60;60.10;;;;;;5028725;28;89088;-82
2021/12/18 02:19:52;;;;;;;4.63;2.92;;;19.60;60.20;;;;;;5014727;28;87522;-82
2021/12/18 02:22:32;;;;;;;4.72;3.15;;;19.60;60.20;;;;;;5013095;28;89244;-83
2021/12/18 02:24:59;;;;;;;5.13;3.75;;;19.60;60.20;;;;;;5011144;28;87577;-82
2021/12/18 02:27:34;;;;;;;5.28;3.40;;;19.50;60.10;;;;;;4996331;28;87347;-81
2021/12/18 02:30:10;;;;;;;6.70;3.70;;;19.50;60.10;;;;;;5013913;28;86984;-81
2021/12/18 02:32:42;;;;;;;4.25;3.28;;;19.50;60.20;;;;;;5015233;28;86340;-81
2021/12/18 02:35:30;;;;;;;3.90;3.38;;;19.50;60.20;;;;;;5015150;28;87406;-81
2021/12/18 02:39:00;;;;;;;5.05;3.60;;;19.50;60.70;;;;;;5014111;28;86904;-81
2021/12/18 02:44:08;;;;;;;5.55;3.63;;;19.50;60.20;;;;;;5010951;28;87319;-82
2021/12/18 02:46:36;;;;;;;4.75;3.55;;;19.50;60.20;;;;;;4997267;28;87140;-82
2021/12/18 02:49:11;;;;;;;4.32;3.35;;;19.50;60.20;;;;;;5036805;28;87798;-81
2021/12/18 02:51:42;;;;;;;5.15;3.85;;;19.50;60.20;;;;;;5042684;28;87488;-81
2021/12/18 02:54:31;;;;;;;;;;;19.50;60.20;;;;;;5045487;28;88036;-82
2021/12/18 02:57:20;;;;;;;4.90;3.78;;;19.50;60.20;;;;;;5040726;27;87056;-82
2021/12/18 02:59:49;;;;;;;5.97;3.80;;;19.50;60.20;;;;;;5047860;28;87273;-81
2021/12/18 03:02:17;;;;;;;4.25;3.15;;;19.50;60.20;;;;;;5049958;28;87773;-82
2021/12/18 03:04:53;;;;;;;5.72;3.90;;;19.50;60.20;;;;;;5040122;28;88025;-82
2021/12/18 03:07:29;;;;;;;5.28;3.35;;;19.50;60.20;;;;;;5047521;28;88517;-83
2021/12/18 03:24:22;;;;;;;4.70;3.60;;;19.40;60.20;;;;;;5049753;28;87749;-82
2021/12/18 03:26:52;;;;;;;4.93;3.33;;;19.40;60.20;;;;;;5051108;28;87160;-82
2021/12/18 03:29:20;;;;;;;5.22;3.67;;;19.40;60.20;;;;;;5052079;28;87150;-81
2021/12/18 03:32:09;;;;;;;4.53;3.60;;;19.40;60.20;;;;;;5049773;28;87945;-82
2021/12/18 03:34:48;;;;;;;5.45;3.95;;;19.40;60.20;;;;;;5035595;28;87982;-82
2021/12/18 03:37:21;;;;;;;6.03;3.55;;;19.40;60.20;;;;;;5033405;28;87963;-82
2021/12/18 03:39:49;;;;;;;4.80;3.38;;;19.40;60.20;;;;;;5011661;28;87034;-82
2021/12/18 03:42:16;;;;;;;6.00;3.72;;;19.40;60.20;;;;;;5050559;28;86908;-82
2021/12/18 03:44:45;;;;;;;5.80;3.85;;;19.40;60.20;;;;;;5050823;28;86684;-82
2021/12/18 03:47:11;;;;;;;4.10;3.38;;;19.40;60.20;;;;;;5028758;28;87979;-82
2021/12/18 03:49:44;;;;;;;6.35;3.70;;;19.40;60.20;;;;;;5041621;28;87057;-81
2021/12/18 03:52:22;;;;;;;6.90;3.60;;;19.40;60.30;;;;;;5047330;28;86969;-82
2021/12/18 03:54:52;;;;;;;4.82;3.75;;;19.40;60.30;;;;;;5048251;28;87736;-82
2021/12/18 03:57:41;;;;;;;4.70;3.47;;;19.30;60.20;;;;;;5034385;28;88232;-81
2021/12/18 04:00:36;;;;;;;7.25;3.75;;;19.30;60.20;;;;;;5049617;28;87549;-82
2021/12/18 04:03:08;;;;;;;4.97;3.92;;;19.30;60.20;;;;;;5047789;28;86450;-81
2021/12/18 04:05:33;;;;;;;4.30;3.53;;;19.30;60.20;;;;;;5021438;28;87132;-82
2021/12/18 04:08:12;;;;;;;4.53;3.40;;;19.30;60.20;;;;;;5047522;27;89192;-82
2021/12/18 04:10:56;;;;;;;5.72;4.03;;;19.30;60.20;;;;;;5049154;28;88142;-82
2021/12/18 04:13:23;;;;;;;6.55;4.10;;;19.30;60.20;;;;;;5049577;28;86860;-82
2021/12/18 04:15:50;;;;;;;4.75;3.67;;;19.30;60.20;;;;;;5049646;28;87273;-82
2021/12/18 04:18:17;;;;;;;5.70;4.00;;;19.30;60.20;;;;;;5047083;28;87965;-82
2021/12/18 04:20:42;;;;;;;6.00;3.78;;;19.30;60.20;;;;;;5033217;28;87648;-81
2021/12/18 04:23:13;;;;;;;4.55;3.40;;;19.30;60.20;;;;;;5031607;28;88776;-82
2021/12/18 04:25:49;;;;;;;5.30;3.95;;;19.30;60.20;;;;;;5041266;28;88133;-81
2021/12/18 04:28:18;;;;;;;4.90;3.63;;;19.30;60.20;;;;;;5047929;28;88837;-82
2021/12/18 04:30:44;;;;;;;5.03;3.80;;;19.30;60.20;;;;;;5034609;28;86906;-81
2021/12/18 04:33:11;;;;;;;6.65;3.42;;;19.30;60.20;;;;;;5046668;28;88015;-82
2021/12/18 04:36:04;;;;;;;5.28;3.60;;;19.30;60.30;;;;;;5045108;28;87993;-82
2021/12/18 04:38:31;;;;;;;4.97;3.80;;;19.30;60.30;;;;;;5047378;28;87150;-82
2021/12/18 04:40:59;;;;;;;4.03;3.50;;;19.30;60.30;;;;;;5045380;28;86913;-82
2021/12/18 04:43:27;;;;;;;6.03;3.70;;;19.20;60.20;;;;;;5047823;28;87532;-82
2021/12/18 04:45:56;;;;;;;5.40;3.90;;;19.20;60.30;;;;;;5047022;28;86997;-81
2021/12/18 04:48:22;;;;;;;7.18;3.80;;;19.20;60.30;;;;;;5038831;28;87689;-82
2021/12/18 04:50:50;;;;;;;4.20;3.50;;;19.20;60.30;;;;;;5021724;28;88759;-81
2021/12/18 04:53:18;;;;;;;4.03;3.53;;;19.30;60.30;;;;;;5021006;28;87175;-82
2021/12/18 04:55:50;;;;;;;3.72;3.35;;;19.20;60.30;;;;;;5038388;28;88069;-81
2021/12/18 04:58:22;;;;;;;4.93;3.90;;;19.20;60.30;;;;;;5032929;28;87263;-81
2021/12/18 05:00:49;;;;;;;5.70;3.53;;;19.20;60.30;;;;;;5021030;28;87964;-81
2021/12/18 05:03:19;;;;;;;5.05;3.80;;;19.20;60.30;;;;;;5040675;28;87284;-81
2021/12/18 05:05:46;;;;;;;6.07;4.18;;;19.20;60.40;;;;;;5016353;28;89537;-81
2021/12/18 05:08:12;;;;;;;5.70;3.70;;;19.20;60.30;;;;;;5035958;28;87755;-82
2021/12/18 05:10:39;;;;;;;5.43;3.92;;;19.20;60.30;;;;;;5038511;28;88151;-82
2021/12/18 05:13:09;;;;;;;4.80;3.88;;;19.20;60.30;;;;;;5034144;28;87472;-82
2021/12/18 05:15:37;;;;;;;4.78;3.53;;;19.20;60.30;;;;;;5035818;28;89045;-82
2021/12/18 05:18:09;;;;;;;4.90;3.60;;;19.20;60.30;;;;;;5034971;28;87762;-82
2021/12/18 05:20:53;;;;;;;5.18;3.95;;;19.20;60.40;;;;;;5001940;28;87870;-82
2021/12/18 05:23:23;;;;;;;6.10;3.75;;;19.20;60.40;;;;;;5037275;28;87759;-82
2021/12/18 05:25:48;;;;;;;5.18;3.85;;;19.20;60.90;;;;;;5016852;28;88068;-82
2021/12/18 05:28:14;;;;;;;5.80;4.00;;;19.20;60.40;;;;;;5038954;28;88516;-81
2021/12/18 05:30:40;;;;;;;4.55;3.45;;;19.20;60.40;;;;;;5030679;28;87207;-82
2021/12/18 05:33:11;;;;;;;4.55;3.50;;;19.20;60.40;;;;;;5015158;28;90231;-82
2021/12/18 05:35:39;;;;;;;4.53;3.63;;;19.20;60.50;;;;;;5026814;28;89254;-81
2021/12/18 05:38:10;;;;;;;5.10;3.80;;;19.10;60.40;;;;;;5035758;28;87874;-81
2021/12/18 05:40:38;;;;;;;5.57;3.75;;;19.20;60.50;;;;;;5015622;28;88565;-82
2021/12/18 05:43:10;;;;;;;4.90;3.75;;;19.10;60.40;;;;;;5017696;28;87225;-82
2021/12/18 05:45:37;;;;;;;7.47;3.58;;;19.20;60.50;;;;;;5018485;28;87738;-81
2021/12/18 05:48:04;;;;;;;6.10;4.70;;;19.10;60.40;;;;;;5018477;28;88874;-81
2021/12/18 05:50:31;;;;;;;5.13;3.55;;;19.10;60.50;;;;;;5015047;28;87696;-81
2021/12/18 05:53:00;;;;;;;6.30;3.60;;;19.10;60.50;;;;;;5039223;28;88145;-82
2021/12/18 05:55:31;;;;;;;6.57;3.83;;;19.10;60.50;;;;;;5032893;28;87810;-82
2021/12/18 05:58:21;;;;;;;4.47;3.58;;;19.10;60.50;;;;;;5020565;28;88207;-82
2021/12/18 06:00:49;;;;;;;5.82;4.00;;;19.10;60.50;;;;;;5019726;28;87713;-82
2021/12/18 06:03:27;;;;;;;4.75;3.60;;;19.10;60.70;;;;;;5020075;28;88343;-81
2021/12/18 06:05:55;;;;;;;5.35;3.95;;;19.10;60.50;;;;;;5037527;28;89089;-82
2021/12/18 06:08:24;;;;;;;6.13;3.83;;;19.10;60.60;;;;;;5018800;28;88038;-81
2021/12/18 06:10:51;;;;;;;5.28;3.63;;;19.10;60.60;;;;;;5035938;28;87394;-82
2021/12/18 06:13:22;;;;;;;5.38;3.97;;;19.10;60.50;;;;;;5032498;28;87883;-83
2021/12/18 06:15:49;;;;;;;5.35;3.92;;;19.10;60.60;;;;;;5017925;28;89754;-82
2021/12/18 06:18:16;;;;;;;4.95;3.67;;;19.10;60.60;;;;;;5019737;28;88398;-82
2021/12/18 06:20:46;;;;;;;4.93;3.60;;;19.10;60.60;;;;;;5034148;28;87279;-81
2021/12/18 06:23:13;;;;;;;3.95;3.08;;;19.10;60.60;;;;;;5016203;28;86944;-81
2021/12/18 06:25:41;;;;;;;5.07;3.70;;;19.10;60.60;;;;;;5031983;28;88169;-81
2021/12/18 06:28:10;;;;;;;4.68;3.70;;;19.10;60.60;;;;;;5026638;28;87505;-82
2021/12/18 06:30:41;;;;;;;4.82;3.70;;;19.10;60.60;;;;;;5016630;28;88245;-82
2021/12/18 06:33:11;;;;;;;4.88;3.42;;;19.00;60.60;;;;;;5018952;28;86912;-82
2021/12/18 06:35:44;;;;;;;5.40;3.80;;;19.00;60.60;;;;;;5033794;28;88061;-82
2021/12/18 06:38:13;;;;;;;5.18;3.90;;;19.10;60.60;;;;;;5016717;28;89855;-81
2021/12/18 06:40:39;;;;;;;5.55;3.90;;;19.00;60.60;;;;;;5017006;28;87206;-81
2021/12/18 06:43:13;;;;;;;5.38;4.22;;;19.00;60.60;;;;;;5024955;28;87789;-81
2021/12/18 06:45:44;;;;;;;4.50;3.72;;;19.10;60.60;;;;;;5005672;28;90886;-81
2021/12/18 06:48:10;;;;;;;4.63;3.50;;;19.00;60.60;;;;;;5037593;28;86650;-81
2021/12/18 06:50:37;;;;;;;5.50;3.60;;;19.00;60.60;;;;;;5034296;28;87015;-80
2021/12/18 06:53:05;;;;;;;3.97;3.53;;;19.00;60.60;;;;;;5035320;28;88869;-81
2021/12/18 06:55:34;;;;;;;5.10;3.80;;;19.10;60.70;;;;;;5018462;28;91535;-81
2021/12/18 06:58:01;;;;;;;5.10;4.18;;;19.00;60.60;;;;;;5042780;28;90240;-81
2021/12/18 07:00:54;;;;;;;4.72;3.60;;;19.00;60.60;;;;;;5018047;28;87000;-82
2021/12/18 07:03:24;;;;;;;6.40;4.18;;;19.00;60.70;;;;;;5037903;28;87924;-82
2021/12/18 07:05:51;;;;;;;4.75;3.45;;;19.00;60.60;;;;;;5037630;28;88897;-82
2021/12/18 07:09:03;;;;;;;5.68;4.00;;;19.00;60.70;;;;;;5021004;28;87969;-81
2021/12/18 07:11:36;;;;;;;5.57;3.78;;;19.00;60.70;;;;;;5035216;28;87073;-81
2021/12/18 07:14:24;;;;;;;5.13;3.55;;;19.00;60.70;;;;;;5021804;28;86460;-82
2021/12/18 07:17:01;;;;;;;5.15;3.95;;;19.00;60.70;;;;;;5038097;28;88293;-81
2021/12/18 07:19:27;;;;;;;5.43;3.72;;;19.00;60.70;;;;;;5034338;28;87516;-81
2021/12/18 07:21:54;;;;;;;6.13;3.78;;;19.00;60.70;;;;;;5039591;28;88106;-82
2021/12/18 07:24:20;;;;;;;4.43;3.67;;;19.00;60.70;;;;;;5034841;28;87469;-81
2021/12/18 07:26:46;;;;;;;4.82;3.70;;;19.00;60.70;;;;;;5016269;28;90713;-82
2021/12/18 07:29:12;;;;;;;4.68;3.78;;;19.00;60.90;;;;;;5016536;28;87436;-82
2021/12/18 07:32:05;;;;;;;4.35;3.63;;;19.00;60.70;;;;;;5012681;28;88113;-82
2021/12/18 07:34:31;;;;;;;6.10;4.05;;;19.00;60.70;;;;;;5017485;28;87644;-81
2021/12/18 07:37:02;;;;;;;5.38;3.80;;;19.00;60.70;;;;;;5035880;28;89241;-82
2021/12/18 07:39:38;;;;;;;7.45;4.45;;;18.90;60.80;;;;;;5022758;28;87394;-81
2021/12/18 07:42:05;;;;;;;7.35;4.20;;;19.00;61.40;;;;;;5005514;27;87218;-81
2021/12/18 07:44:39;;;;;;;5.53;3.78;;;19.00;61.50;;;;;;5035517;28;87815;-81
2021/12/18 07:47:08;;;;;;;5.10;3.70;;;19.00;61.60;;;;;;5025891;28;91673;-81
2021/12/18 07:49:34;;;;;;;9.75;3.85;;;18.90;61.60;;;;;;5039332;28;89463;-82
2021/12/18 07:52:17;;;;;;;9.48;4.00;;;19.00;61.70;;;;;;5038641;28;86916;-81
2021/12/18 07:54:49;;;;;;;6.13;3.83;;;18.90;62.20;;;;;;5038475;28;87636;-82
2021/12/18 07:57:15;;;;;;;6.03;3.63;;;18.90;61.60;;;;;;5022093;28;87664;-82
2021/12/18 07:59:48;;;;;;;5.78;3.75;;;18.90;61.90;;;;;;5033557;28;90076;-79
2021/12/18 08:02:14;;;;;;;8.17;3.73;;;18.90;61.90;;;;;;5044365;28;87577;-80
2021/12/18 08:05:03;;;;;;;8.57;3.88;;;19.00;62.00;;;;;;5037858;28;88681;-81
2021/12/18 08:07:30;;;;;;;6.53;4.10;;;19.10;61.70;;;;;;5028892;28;89172;-80
2021/12/18 08:09:57;;;;;;;10.00;4.78;;;19.10;61.70;;;;;;5023203;28;88787;-80
2021/12/18 08:12:33;;;;;;;6.55;4.32;;;19.20;61.70;;;;;;5027084;28;88631;-80
2021/12/18 08:15:03;;;;;;;9.40;5.18;;;19.30;61.50;;;;;;5047060;28;86946;-80
2021/12/18 08:17:34;;;;;;;13.07;6.28;;;19.40;61.50;;;;;;5030757;28;90912;-83
2021/12/18 08:20:12;;;;;;;12.98;5.53;;;19.50;61.40;;;;;;5023268;28;89066;-82
2021/12/18 08:22:42;;;;;;;13.43;6.07;;;19.60;61.20;;;;;;5050314;28;87583;-82
2021/12/18 08:25:28;;;;;;;11.07;5.20;;;19.70;60.90;;;;;;5040202;28;87530;-83
2021/12/18 08:27:59;;;;;;;12.65;6.50;;;19.80;60.70;;;;;;5018333;28;87718;-81
2021/12/18 08:30:28;;;;;;;11.68;5.60;;;19.90;60.40;;;;;;5024671;28;88735;-81
2021/12/18 08:33:06;;;;;;;12.48;5.72;;;19.90;60.20;;;;;;5040702;28;87116;-82
2021/12/18 08:35:34;;;;;;;467.25;59.80;;;20.00;60.60;;;;;;5037933;28;87925;-81
2021/12/18 08:38:03;;;;;;;125.70;17.55;;;20.10;59.90;;;;;;5036558;28;90018;-82
2021/12/18 08:40:31;;;;;;;75.95;14.02;;;20.10;59.60;;;;;;5038070;28;89008;-82
2021/12/18 08:42:57;;;;;;;59.17;11.75;;;20.20;59.40;;;;;;5029916;28;86856;-80
2021/12/18 08:45:23;;;;;;;51.53;11.27;;;20.20;59.70;;;;;;5021348;28;87629;-81
2021/12/18 08:47:50;;;;;;;42.05;9.30;;;20.20;59.10;;;;;;5020085;28;86957;-81
2021/12/18 08:50:17;;;;;;;34.88;9.88;;;20.30;59.20;;;;;;5017295;28;87786;-82
2021/12/18 08:52:44;;;;;;;32.53;9.10;;;20.30;59.00;;;;;;5022213;28;86800;-82
2021/12/18 08:55:11;;;;;;;25.30;8.82;;;20.30;58.90;;;;;;5020112;28;86786;-81
2021/12/18 08:58:02;;;;;;;29.98;8.63;;;20.30;58.90;;;;;;5037959;28;90603;-81
2021/12/18 09:00:34;;;;;;;29.08;9.30;;;20.40;59.00;;;;;;5038101;28;87309;-80
2021/12/18 09:03:01;;;;;;;38.25;8.75;;;20.40;59.10;;;;;;5051319;28;88095;-81
2021/12/18 09:05:35;;;;;;;28.45;7.75;;;20.30;59.10;;;;;;5046864;28;86720;-80
2021/12/18 09:08:06;;;;;;;27.48;7.28;;;20.30;59.30;;;;;;5008253;28;88533;-80
2021/12/18 09:10:36;;;;;;;27.48;8.32;;;20.30;59.40;;;;;;5027372;28;87729;-79
2021/12/18 09:13:06;;;;;;;32.58;9.07;;;20.30;59.30;;;;;;5024480;28;87440;-81
2021/12/18 09:15:32;;;;;;;23.20;7.50;;;20.30;59.50;;;;;;5027605;28;87356;-80
2021/12/18 09:17:59;;;;;;;27.15;7.47;;;20.30;59.60;;;;;;5026853;28;90674;-80
2021/12/18 09:20:46;;;;;;;21.45;7.57;;;20.30;59.70;;;;;;5041478;28;86868;-80
2021/12/18 09:23:16;;;;;;;28.27;7.88;;;20.30;59.60;;;;;;5031904;28;87522;-80
2021/12/18 09:25:43;;;;;;;24.05;7.47;;;20.30;59.50;;;;;;5047604;28;87459;-80
2021/12/18 09:28:09;;;;;;;17.90;7.07;;;20.30;59.50;;;;;;5048042;28;89691;-78
2021/12/18 09:30:35;;;;;;;14.82;6.55;;;20.30;59.40;;;;;;5048530;28;87422;-78
2021/12/18 09:33:04;;;;;;;16.75;7.00;;;20.30;59.40;;;;;;5006507;27;86641;-78
2021/12/18 09:35:30;;;;;;;24.00;6.75;;;20.30;59.40;;;;;;5067629;27;87444;-78
2021/12/18 09:38:01;;;;;;;18.77;6.88;;;20.40;59.40;;;;;;5041409;27;89437;-79
2021/12/18 09:40:29;;;;;;;17.77;7.10;;;20.40;59.30;;;;;;5062289;22;88244;-59
2021/12/18 09:42:55;;;;;;;18.17;6.47;;;20.40;59.70;;;;;;5030130;28;87927;-60
2021/12/18 09:45:21;;;;;;;17.10;6.97;;;20.40;60.00;;;;;;5030338;28;86387;-58
2021/12/18 09:47:47;;;;;;;19.85;7.22;;;20.50;60.00;;;;;;5004353;28;89525;-59
2021/12/18 09:50:15;;;;;;;30.25;8.05;;;20.60;59.80;;;;;;5011382;28;90671;-59
2021/12/18 09:52:41;;;;;;;33.95;8.45;;;20.60;59.70;;;;;;5029828;28;88955;-59
2021/12/18 09:55:08;;;;;;;35.05;8.82;;;20.60;59.60;;;;;;5003485;28;89776;-60
2021/12/18 09:57:36;;;;;;;32.22;9.68;;;20.60;59.50;;;;;;5027746;28;88355;-60
2021/12/18 10:00:04;;;;;;;30.23;9.38;;;20.60;59.60;;;;;;5009652;28;92283;-60
2021/12/18 10:02:30;;;;;;;30.92;9.02;;;20.70;59.80;;;;;;4997737;28;88005;-61
2021/12/18 10:04:57;;;;;;;28.98;8.75;;;20.80;60.10;;;;;;5029356;28;87983;-60
2021/12/18 10:07:25;;;;;;;36.40;9.05;;;20.90;60.00;;;;;;5009228;28;91174;-63
2021/12/18 10:09:56;;;;;;;34.22;10.02;;;20.90;59.90;;;;;;5011209;28;91218;-63
2021/12/18 10:12:28;;;;;;;28.60;8.23;;;20.90;59.90;;;;;;5004046;28;87998;-62
2021/12/18 10:14:59;;;;;;;23.85;8.60;;;20.90;60.00;;;;;;5028421;28;88139;-66
2021/12/18 10:17:31;;;;;;;28.15;9.55;;;20.90;60.00;;;;;;5027352;28;90849;-63
2021/12/18 10:20:17;;;;;;;36.03;12.45;;;20.90;60.10;;;;;;4996486;28;91929;-64
2021/12/18 10:22:47;;;;;;;37.67;12.02;;;20.90;60.50;;;;;;5028427;28;87934;-60
2021/12/18 10:25:15;;;;;;;33.75;10.57;;;20.90;60.30;;;;;;5027446;28;88240;-59
2021/12/18 10:27:43;;;;;;;33.15;10.57;;;20.80;60.10;;;;;;4997926;28;88805;-60
2021/12/18 10:30:20;;;;;;;29.67;10.40;;;20.80;59.90;;;;;;5028006;28;88040;-61
2021/12/18 10:33:09;;;;;;;33.28;11.10;;;20.80;59.80;;;;;;5028062;28;87885;-60
2021/12/18 10:35:51;;;;;;;25.05;9.23;;;20.80;59.70;;;;;;5002071;28;87995;-61
2021/12/18 10:38:50;;;;;;;25.33;9.52;;;20.70;59.40;;;;;;5028231;28;88138;-60
2021/12/18 10:41:27;;;;;;;26.05;8.93;;;20.70;59.20;;;;;;5028906;28;88332;-60
2021/12/18 10:43:57;;;;;;;22.20;9.13;;;20.70;59.00;;;;;;5028254;28;89149;-60
2021/12/18 10:46:23;;;;;;;23.27;8.50;;;20.60;58.90;;;;;;5010346;28;88510;-60
2021/12/18 10:49:02;;;;;;;23.58;9.90;;;20.60;58.70;;;;;;5014651;22;90102;-72
2021/12/18 10:51:30;;;;;;;17.05;8.18;;;20.60;58.60;;;;;;4997910;28;88724;-73
2021/12/18 10:54:23;;;;;;;22.30;8.45;;;20.60;58.60;;;;;;4981296;28;87514;-71
2021/12/18 10:56:53;;;;;;;19.38;8.25;;;20.50;58.50;;;;;;4998403;28;87628;-72
2021/12/18 10:59:31;;;;;;;22.02;8.68;;;20.50;58.50;;;;;;4996297;28;87539;-71
2021/12/18 11:02:00;;;;;;;19.17;8.35;;;20.50;58.40;;;;;;4994707;28;87796;-72
2021/12/18 11:04:29;;;;;;;22.38;8.18;;;20.50;58.40;;;;;;5001632;28;87732;-72
2021/12/18 11:06:55;;;;;;;20.20;8.45;;;20.40;58.40;;;;;;4999757;28;87885;-74
2021/12/18 11:09:31;;;;;;;16.95;7.93;;;20.40;58.30;;;;;;5001791;28;88490;-72
2021/12/18 11:14:34;;;;;;;14.77;7.82;;;20.40;58.40;;;;;;4994603;28;87730;-72
2021/12/18 11:17:03;;;;;;;21.35;7.57;;;20.40;58.40;;;;;;4997050;28;87681;-72
2021/12/18 11:19:30;;;;;;;19.00;7.82;;;20.40;58.40;;;;;;5001039;28;87667;-71
2021/12/18 11:22:06;;;;;;;17.17;8.13;;;20.30;58.40;;;;;;4998601;28;89714;-71
2021/12/18 11:24:40;;;;;;;21.67;7.95;;;20.40;58.50;;;;;;4997436;28;88211;-72
2021/12/18 11:27:08;;;;;;;17.48;7.93;;;20.30;58.50;;;;;;4998546;28;86711;-72
2021/12/18 11:29:47;;;;;;;17.08;8.10;;;20.30;58.60;;;;;;5000044;28;88171;-71
2021/12/18 11:32:20;;;;;;;15.63;8.15;;;20.30;58.60;;;;;;5001011;28;88757;-71
2021/12/18 11:34:47;;;;;;;19.15;7.60;;;20.20;58.60;;;;;;4993726;28;88427;-72
2021/12/18 11:37:16;;;;;;;12.60;7.78;;;20.30;58.70;;;;;;5001887;28;87583;-72
2021/12/18 11:39:44;;;;;;;16.30;8.13;;;20.30;58.70;;;;;;4999903;28;87902;-73
2021/12/18 11:42:10;;;;;;;16.92;7.38;;;20.20;59.10;;;;;;4997644;28;88691;-73
2021/12/18 11:44:37;;;;;;;15.93;8.20;;;20.30;59.10;;;;;;5001066;28;87714;-74
2021/12/18 11:47:24;;;;;;;14.85;7.50;;;20.20;59.20;;;;;;4997083;28;87514;-73
2021/12/18 11:49:50;;;;;;;20.55;8.20;;;20.30;59.30;;;;;;4998393;28;88451;-74
2021/12/18 11:52:15;;;;;;;15.95;8.45;;;20.30;59.40;;;;;;4996028;28;87581;-72
2021/12/18 11:54:45;;;;;;;20.00;7.70;;;20.40;59.50;;;;;;5003926;28;87795;-74
2021/12/18 11:57:42;;;;;;;19.73;7.47;;;20.40;59.30;;;;;;4995140;28;87894;-74
2021/12/18 12:00:29;;;;;;;13.73;7.03;;;20.50;59.20;;;;;;4980353;28;91223;-73
2021/12/18 12:02:58;;;;;;;20.23;7.63;;;20.50;59.10;;;;;;5004829;28;88007;-73
2021/12/18 12:05:45;;;;;;;14.35;7.13;;;20.50;59.00;;;;;;5001134;28;87525;-73
2021/12/18 12:08:43;;;;;;;16.67;7.38;;;20.50;58.90;;;;;;5004614;28;87167;-72
2021/12/18 12:11:18;;;;;;;14.82;6.97;;;20.60;58.90;;;;;;5003710;28;87693;-74
2021/12/18 12:14:04;;;;;;;14.48;7.00;;;20.60;58.90;;;;;;5003176;28;88309;-73
2021/12/18 12:16:47;;;;;;;12.73;6.80;;;20.60;58.90;;;;;;5005743;28;87097;-72
2021/12/18 12:19:20;;;;;;;15.90;6.95;;;20.50;58.80;;;;;;4999652;28;86483;-73
2021/12/18 12:21:50;;;;;;;12.88;6.38;;;20.60;58.90;;;;;;5004170;28;88141;-74
2021/12/18 12:24:18;;;;;;;14.25;6.88;;;20.60;58.90;;;;;;5002053;28;87870;-73
2021/12/18 12:26:44;;;;;;;11.77;6.18;;;20.60;58.90;;;;;;4992185;28;89573;-73
2021/12/18 12:29:13;;;;;;;11.75;7.13;;;20.50;58.90;;;;;;5003875;28;87668;-73
2021/12/18 12:31:59;;;;;;;13.35;7.18;;;20.60;58.90;;;;;;5005368;28;88005;-73
2021/12/18 12:34:31;;;;;;;13.93;6.85;;;20.50;58.90;;;;;;5005980;28;87829;-73
2021/12/18 12:37:17;;;;;;;13.48;6.80;;;20.50;58.80;;;;;;5004887;28;87829;-72
2021/12/18 12:40:02;;;;;;;13.07;6.60;;;20.50;58.90;;;;;;4984780;28;89601;-73
2021/12/18 12:42:28;;;;;;;15.50;7.60;;;20.50;58.80;;;;;;4997419;28;88351;-73
2021/12/18 12:45:08;;;;;;;12.68;6.97;;;20.50;58.90;;;;;;4999868;28;87480;-72
2021/12/18 12:47:34;;;;;;;11.68;6.45;;;20.40;58.80;;;;;;4982822;28;87430;-73
2021/12/18 12:50:11;;;;;;;14.30;7.47;;;20.40;58.80;;;;;;5004048;28;87208;-73
2021/12/18 12:53:05;;;;;;;15.05;6.57;;;20.40;58.80;;;;;;4998256;28;89022;-72
2021/12/18 12:55:37;;;;;;;12.63;6.68;;;20.40;58.90;;;;;;5004264;28;88718;-73
2021/12/18 12:58:03;;;;;;;11.13;6.13;;;20.30;58.90;;;;;;4998170;28;88283;-74
2021/12/18 13:00:29;;;;;;;11.93;6.40;;;20.30;58.90;;;;;;4999261;28;89217;-73
2021/12/18 13:02:58;;;;;;;14.18;7.05;;;20.30;59.00;;;;;;5001467;28;88050;-73
2021/12/18 13:05:27;;;;;;;13.45;6.78;;;20.30;59.00;;;;;;4998983;28;87965;-72
2021/12/18 13:08:01;;;;;;;12.68;7.00;;;20.30;58.90;;;;;;5005530;28;87363;-73
2021/12/18 13:10:35;;;;;;;11.68;6.93;;;20.30;58.90;;;;;;5000947;28;87381;-74
2021/12/18 13:13:04;;;;;;;13.20;7.03;;;20.20;58.80;;;;;;5001386;28;88006;-73
2021/12/18 13:15:46;;;;;;;15.65;7.28;;;20.20;58.80;;;;;;4994451;28;89164;-73
2021/12/18 13:18:13;;;;;;;12.65;6.95;;;20.20;58.90;;;;;;4994612;28;88260;-73
2021/12/18 13:20:57;;;;;;;13.32;6.28;;;20.20;58.90;;;;;;5005070;28;87756;-73
2021/12/18 13:23:39;;;;;;;14.05;6.72;;;20.10;58.90;;;;;;5000094;28;88806;-73
2021/12/18 13:26:10;;;;;;;15.82;7.13;;;20.20;58.90;;;;;;4915047;28;87960;-73
2021/12/18 13:28:48;;;;;;;16.50;7.15;;;20.20;59.00;;;;;;4980347;28;88185;-72
2021/12/18 13:31:13;;;;;;;12.07;7.15;;;20.20;59.00;;;;;;4995697;28;89058;-73
2021/12/18 13:33:40;;;;;;;13.30;6.68;;;20.10;58.90;;;;;;4999625;28;88363;-72
2021/12/18 13:36:06;;;;;;;10.82;6.30;;;20.20;58.90;;;;;;5000684;28;87841;-73
2021/12/18 13:38:44;;;;;;;15.55;7.43;;;20.20;58.90;;;;;;5006843;28;87053;-73
2021/12/18 13:41:13;;;;;;;13.95;6.70;;;20.20;58.90;;;;;;4989734;28;87993;-72
2021/12/18 13:43:40;;;;;;;12.75;6.93;;;20.20;58.90;;;;;;5008826;28;92473;-72
2021/12/18 13:46:08;;;;;;;19.23;7.10;;;20.20;58.90;;;;;;4993782;28;91372;-75
2021/12/18 13:48:38;;;;;;;15.85;8.23;;;20.20;59.00;;;;;;5000911;28;87449;-75
2021/12/18 13:51:07;;;;;;;13.93;6.85;;;20.20;58.80;;;;;;4998628;28;88099;-75